createdAt,value
2018-10-02T00:01:39.868Z,5.37
2018-10-02T00:04:08.523Z,4.93
2018-10-02T00:06:37.317Z,4.77
2018-10-02T00:09:08.967Z,4.97
2018-10-02T00:11:42.919Z,5.00
2018-10-02T00:14:16.780Z,5.20
2018-10-02T00:16:45.575Z,5.37
2018-10-02T00:19:14.274Z,5.70
2018-10-02T00:21:43.172Z,5.27
2018-10-02T00:24:11.867Z,5.67
2018-10-02T00:26:40.643Z,5.20
2018-10-02T00:29:09.585Z,5.60
2018-10-02T00:31:38.328Z,5.93
2018-10-02T00:34:07.284Z,5.70
2018-10-02T00:36:36.352Z,5.27
2018-10-02T00:39:05.904Z,5.47
2018-10-02T00:41:34.745Z,6.07
2018-10-02T00:44:03.506Z,6.07
2018-10-02T00:46:32.239Z,6.27
2018-10-02T00:49:01.048Z,5.63
2018-10-02T00:51:29.793Z,6.47
2018-10-02T00:53:58.451Z,6.50
2018-10-02T00:56:27.204Z,6.13
2018-10-02T00:58:55.916Z,6.23
2018-10-02T01:01:24.700Z,6.10
2018-10-02T01:03:53.417Z,6.47
2018-10-02T01:06:22.069Z,5.70
2018-10-02T01:08:50.740Z,6.40
2018-10-02T01:11:19.392Z,6.63
2018-10-02T01:13:48.029Z,6.33
2018-10-02T01:16:16.700Z,6.40
2018-10-02T01:18:45.359Z,6.60
2018-10-02T01:21:14.134Z,6.43
2018-10-02T01:23:42.801Z,6.30
2018-10-02T01:26:11.500Z,6.10
2018-10-02T01:28:40.257Z,6.63
2018-10-02T01:31:09.005Z,7.07
2018-10-02T01:33:37.695Z,6.53
2018-10-02T01:36:07.771Z,6.50
2018-10-02T01:38:36.503Z,6.63
2018-10-02T01:41:05.320Z,6.67
2018-10-02T01:43:33.952Z,6.57
2018-10-02T01:46:02.787Z,7.33
2018-10-02T01:48:31.512Z,6.53
2018-10-02T01:51:00.497Z,7.43
2018-10-02T01:53:29.256Z,7.17
2018-10-02T01:55:57.903Z,6.63
2018-10-02T01:58:26.725Z,7.13
2018-10-02T02:00:55.472Z,7.03
2018-10-02T02:03:24.123Z,7.60
2018-10-02T02:05:52.816Z,7.87
2018-10-02T02:08:21.569Z,7.87
2018-10-02T02:10:50.285Z,6.87
2018-10-02T02:13:18.984Z,6.87
2018-10-02T02:15:47.700Z,6.77
2018-10-02T02:18:16.440Z,7.20
2018-10-02T02:20:45.224Z,6.60
2018-10-02T02:23:13.928Z,7.07
2018-10-02T02:25:42.642Z,6.47
2018-10-02T02:28:11.471Z,6.60
2018-10-02T02:30:40.173Z,6.37
2018-10-02T02:33:08.851Z,6.50
2018-10-02T02:35:37.565Z,7.53
2018-10-02T02:38:06.534Z,8.27
2018-10-02T02:40:35.203Z,7.20
2018-10-02T02:43:03.934Z,8.63
2018-10-02T02:45:32.680Z,8.43
2018-10-02T02:48:06.540Z,13.03
2018-10-02T02:50:40.306Z,8.77
2018-10-02T02:53:14.104Z,8.87
2018-10-02T02:55:42.804Z,10.23
2018-10-02T02:58:11.496Z,9.50
2018-10-02T03:00:40.346Z,10.10
2018-10-02T03:03:09.030Z,10.23
2018-10-02T03:05:37.724Z,10.23
2018-10-02T03:08:06.372Z,13.20
2018-10-02T03:10:35.232Z,17.67
2018-10-02T03:13:04.028Z,16.20
2018-10-02T03:15:32.806Z,12.10
2018-10-02T03:18:01.672Z,14.70
2018-10-02T03:20:30.404Z,13.63
2018-10-02T03:22:59.100Z,13.57
2018-10-02T03:25:27.737Z,14.57
2018-10-02T03:27:56.411Z,14.57
2018-10-02T03:30:25.092Z,14.23
2018-10-02T03:32:53.833Z,13.40
2018-10-02T03:35:22.593Z,14.00
2018-10-02T03:37:51.404Z,13.47
2018-10-02T03:40:20.028Z,13.83
2018-10-02T03:42:48.743Z,14.67
2018-10-02T03:45:17.542Z,13.53
2018-10-02T03:47:46.373Z,12.10
2018-10-02T03:50:15.103Z,11.17
2018-10-02T03:52:43.764Z,12.30
2018-10-02T03:55:12.544Z,11.57
2018-10-02T03:57:41.269Z,11.40
2018-10-02T04:00:10.024Z,11.57
2018-10-02T04:02:38.726Z,11.27
2018-10-02T04:05:07.516Z,10.80
2018-10-02T04:07:36.240Z,10.77
2018-10-02T04:10:04.902Z,10.73
2018-10-02T04:12:33.553Z,10.43
2018-10-02T04:15:02.269Z,10.53
2018-10-02T04:17:31.186Z,10.23
2018-10-02T04:19:59.873Z,9.70
2018-10-02T04:22:28.547Z,10.93
2018-10-02T04:24:57.256Z,11.53
2018-10-02T04:27:25.944Z,10.53
2018-10-02T04:29:54.619Z,10.40
2018-10-02T04:32:23.292Z,9.90
2018-10-02T04:34:51.977Z,9.17
2018-10-02T04:37:20.610Z,8.87
2018-10-02T04:39:49.412Z,11.03
2018-10-02T04:42:18.232Z,13.07
2018-10-02T04:44:47.242Z,13.33
2018-10-02T04:47:15.934Z,15.13
2018-10-02T04:49:44.688Z,15.60
2018-10-02T04:52:13.418Z,15.67
2018-10-02T04:54:42.083Z,16.80
2018-10-02T04:57:10.748Z,15.47
2018-10-02T04:59:39.525Z,19.20
2018-10-02T05:02:08.275Z,20.37
2018-10-02T05:04:36.982Z,16.60
2018-10-02T05:07:05.717Z,15.40
2018-10-02T05:09:34.408Z,12.77
2018-10-02T05:12:03.185Z,12.57
2018-10-02T05:14:31.896Z,13.20
2018-10-02T05:17:00.718Z,13.37
2018-10-02T05:19:29.500Z,12.87
2018-10-02T05:21:58.230Z,13.07
2018-10-02T05:24:27.006Z,14.13
2018-10-02T05:26:55.741Z,14.40
2018-10-02T05:29:24.485Z,14.30
2018-10-02T05:31:53.309Z,13.30
2018-10-02T05:34:22.044Z,13.40
2018-10-02T05:36:50.742Z,12.87
2018-10-02T05:39:19.461Z,13.60
2018-10-02T05:41:48.179Z,14.63
2018-10-02T05:44:16.944Z,15.90
2018-10-02T05:46:45.689Z,15.67
2018-10-02T05:49:14.432Z,13.63
2018-10-02T05:51:43.224Z,14.53
2018-10-02T05:54:11.942Z,15.67
2018-10-02T05:56:40.677Z,13.97
2018-10-02T05:59:09.524Z,13.47
2018-10-02T06:01:38.334Z,14.47
2018-10-02T06:04:07.152Z,15.07
2018-10-02T06:06:35.786Z,14.90
2018-10-02T06:09:06.148Z,14.97
2018-10-02T06:11:34.828Z,14.17
2018-10-02T06:14:03.486Z,14.63
2018-10-02T06:16:32.141Z,14.63
2018-10-02T06:19:00.832Z,14.27
2018-10-02T06:21:29.558Z,13.97
2018-10-02T06:23:58.317Z,14.07
2018-10-02T06:26:27.098Z,13.93
2018-10-02T06:28:55.817Z,13.03
2018-10-02T06:31:24.555Z,13.60
2018-10-02T06:33:53.290Z,12.17
2018-10-02T06:36:21.965Z,12.23
2018-10-02T06:38:50.734Z,12.27
2018-10-02T06:41:19.598Z,11.37
2018-10-02T06:43:48.501Z,11.33
2018-10-02T06:46:17.099Z,11.37
2018-10-02T06:48:45.819Z,12.67
2018-10-02T06:51:14.600Z,12.67
2018-10-02T06:53:43.245Z,12.17
2018-10-02T06:56:11.934Z,13.03
2018-10-02T06:58:40.626Z,13.33
2018-10-02T07:01:09.381Z,13.63
2018-10-02T07:03:38.099Z,11.63
2018-10-02T07:06:07.096Z,11.90
2018-10-02T07:08:35.970Z,12.13
2018-10-02T07:11:04.752Z,12.17
2018-10-02T07:13:33.582Z,12.47
2018-10-02T07:16:02.245Z,11.27
2018-10-02T07:18:30.898Z,11.77
2018-10-02T07:20:59.685Z,10.00
2018-10-02T07:23:28.442Z,11.40
2018-10-02T07:25:57.313Z,11.30
2018-10-02T07:28:26.021Z,12.90
2018-10-02T07:30:54.839Z,12.83
2018-10-02T07:33:23.537Z,12.23
2018-10-02T07:35:52.328Z,12.17
2018-10-02T07:38:20.972Z,13.60
2018-10-02T07:40:49.658Z,12.83
2018-10-02T07:43:18.346Z,13.38
2018-10-02T07:45:47.019Z,13.78
2018-10-02T07:48:15.821Z,13.60
2018-10-02T07:50:44.717Z,14.38
2018-10-02T07:53:13.325Z,14.40
2018-10-02T07:55:42.193Z,13.53
2018-10-02T07:58:10.894Z,13.32
2018-10-02T08:00:39.564Z,12.28
2018-10-02T08:03:08.335Z,12.80
2018-10-02T08:05:37.164Z,12.68
2018-10-02T08:08:05.877Z,12.28
2018-10-02T08:10:34.566Z,11.80
2018-10-02T08:13:03.443Z,11.65
2018-10-02T08:15:32.332Z,12.60
2018-10-02T08:18:01.092Z,12.30
2018-10-02T08:20:29.901Z,11.55
2018-10-02T08:22:58.708Z,12.25
2018-10-02T08:25:27.445Z,12.30
2018-10-02T08:27:56.203Z,12.55
2018-10-02T08:30:25.005Z,12.55
2018-10-02T08:32:53.845Z,12.25
2018-10-02T08:35:22.547Z,11.80
2018-10-02T08:37:51.537Z,12.95
2018-10-02T08:40:20.240Z,11.65
2018-10-02T08:42:49.123Z,11.50
2018-10-02T08:45:17.847Z,12.55
2018-10-02T08:47:46.572Z,13.30
2018-10-02T08:50:15.439Z,12.65
2018-10-02T08:52:44.164Z,11.97
2018-10-02T08:55:12.902Z,11.60
2018-10-02T08:57:41.705Z,11.53
2018-10-02T09:00:10.557Z,12.73
2018-10-02T09:02:39.225Z,12.15
2018-10-02T09:05:08.045Z,12.65
2018-10-02T09:07:36.852Z,12.68
2018-10-02T09:10:05.640Z,13.60
2018-10-02T09:12:34.432Z,11.15
2018-10-02T09:15:03.094Z,12.47
2018-10-02T09:17:31.760Z,12.35
2018-10-02T09:20:00.425Z,13.08
2018-10-02T09:22:29.146Z,11.88
2018-10-02T09:25:12.576Z,12.33
2018-10-02T09:27:41.494Z,12.03
2018-10-02T09:30:15.518Z,12.65
2018-10-02T09:32:49.470Z,12.98
2018-10-02T09:35:23.376Z,11.65
2018-10-02T09:37:57.162Z,12.73
2018-10-02T09:40:32.749Z,13.30
2018-10-02T09:43:06.684Z,14.43
2018-10-02T09:45:35.547Z,13.40
2018-10-02T09:48:09.095Z,12.93
2018-10-02T09:50:37.872Z,14.73
2018-10-02T09:53:06.585Z,12.13
2018-10-02T09:55:35.589Z,12.37
2018-10-02T09:58:04.957Z,12.70
2018-10-02T10:00:38.925Z,12.55
2018-10-02T10:03:07.786Z,13.30
2018-10-02T10:05:36.429Z,13.58
2018-10-02T10:08:05.093Z,14.50
2018-10-02T10:10:33.875Z,13.62
2018-10-02T10:13:02.725Z,13.93
2018-10-02T10:15:31.425Z,15.28
2018-10-02T10:18:00.180Z,12.28
2018-10-02T10:20:28.952Z,13.30
2018-10-02T10:22:57.674Z,14.35
2018-10-02T10:25:26.682Z,13.58
2018-10-02T10:27:55.354Z,14.35
2018-10-02T10:30:24.146Z,13.90
2018-10-02T10:32:53.074Z,13.83
2018-10-02T10:35:21.878Z,13.55
2018-10-02T10:37:50.625Z,13.35
2018-10-02T10:40:19.501Z,14.63
2018-10-02T10:42:48.237Z,14.15
2018-10-02T10:45:17.103Z,13.45
2018-10-02T10:47:46.474Z,13.62
2018-10-02T10:50:15.140Z,14.45
2018-10-02T10:52:43.941Z,13.90
2018-10-02T10:55:32.970Z,14.55
2018-10-02T10:58:01.783Z,13.88
2018-10-02T11:00:30.635Z,13.55
2018-10-02T11:02:59.473Z,12.70
2018-10-02T11:05:28.496Z,12.43
2018-10-02T11:07:57.274Z,14.07
2018-10-02T11:10:26.073Z,13.30
2018-10-02T11:12:54.825Z,11.97
2018-10-02T11:15:24.548Z,11.45
2018-10-02T11:17:53.198Z,12.20
2018-10-02T11:20:31.812Z,13.00
2018-10-02T11:23:00.502Z,10.63
2018-10-02T11:25:29.328Z,11.55
2018-10-02T11:27:58.102Z,10.38
2018-10-02T11:30:26.869Z,10.30
2018-10-02T11:32:55.570Z,10.25
2018-10-02T11:35:24.480Z,12.18
2018-10-02T11:37:53.267Z,13.22
2018-10-02T11:40:22.082Z,10.48
2018-10-02T11:42:50.807Z,9.95
2018-10-02T11:45:19.762Z,11.50
2018-10-02T11:47:48.491Z,8.78
2018-10-02T11:50:17.225Z,9.40
2018-10-02T11:52:45.978Z,7.90
2018-10-02T11:55:14.875Z,8.58
2018-10-02T11:57:43.618Z,8.90
2018-10-02T12:00:12.405Z,9.00
2018-10-02T12:02:41.318Z,8.78
2018-10-02T12:05:10.055Z,9.48
2018-10-02T12:07:38.766Z,9.30
2018-10-02T12:10:07.686Z,8.88
2018-10-02T12:12:36.401Z,8.53
2018-10-02T12:15:05.288Z,8.90
2018-10-02T12:17:34.018Z,8.00
2018-10-02T12:20:02.771Z,8.70
2018-10-02T12:22:31.484Z,8.15
2018-10-02T12:25:00.162Z,9.18
2018-10-02T12:27:29.027Z,8.50
2018-10-02T12:29:57.740Z,8.75
2018-10-02T12:32:26.535Z,7.85
2018-10-02T12:34:55.370Z,8.25
2018-10-02T12:37:24.074Z,8.40
2018-10-02T12:39:52.779Z,9.33
2018-10-02T12:42:21.549Z,8.25
2018-10-02T12:44:50.358Z,8.83
2018-10-02T12:47:19.075Z,7.80
2018-10-02T12:49:47.864Z,8.38
2018-10-02T12:52:16.674Z,7.85
2018-10-02T12:54:45.342Z,8.90
2018-10-02T12:57:14.006Z,7.97
2018-10-02T12:59:42.762Z,7.90
2018-10-02T13:02:11.490Z,8.13
2018-10-02T13:04:40.227Z,8.55
2018-10-02T13:07:09.384Z,10.20
2018-10-02T13:09:38.133Z,8.18
2018-10-02T13:12:06.961Z,8.83
2018-10-02T13:14:35.644Z,8.58
2018-10-02T13:17:04.469Z,7.80
2018-10-02T13:19:33.230Z,7.53
2018-10-02T13:22:01.976Z,8.08
2018-10-02T13:24:30.762Z,6.78
2018-10-02T13:26:59.452Z,8.00
2018-10-02T13:29:28.405Z,7.83
2018-10-02T13:31:57.203Z,8.55
2018-10-02T13:34:26.059Z,7.92
2018-10-02T13:36:54.918Z,8.10
2018-10-02T13:39:23.609Z,7.23
2018-10-02T13:41:52.425Z,7.50
2018-10-02T13:44:21.131Z,7.97
2018-10-02T13:46:49.932Z,8.27
2018-10-02T13:49:18.640Z,8.67
2018-10-02T13:51:47.378Z,8.63
2018-10-02T13:54:16.130Z,7.90
2018-10-02T13:56:44.929Z,8.50
2018-10-02T13:59:13.657Z,7.23
2018-10-02T14:01:42.385Z,10.00
2018-10-02T14:04:11.182Z,8.63
2018-10-02T14:06:40.061Z,8.20
2018-10-02T14:09:09.208Z,8.37
2018-10-02T14:11:37.967Z,6.50
2018-10-02T14:14:06.737Z,6.93
2018-10-02T14:16:35.608Z,7.00
2018-10-02T14:19:04.340Z,7.90
2018-10-02T14:21:33.152Z,6.83
2018-10-02T14:24:01.970Z,6.50
2018-10-02T14:26:30.686Z,7.43
2018-10-02T14:28:59.409Z,8.63
2018-10-02T14:31:28.082Z,7.53
2018-10-02T14:33:56.832Z,7.10
2018-10-02T14:36:26.519Z,7.27
2018-10-02T14:38:55.372Z,6.57
2018-10-02T14:41:24.225Z,8.93
2018-10-02T14:43:52.885Z,7.97
2018-10-02T14:46:21.604Z,7.77
2018-10-02T14:48:50.310Z,7.60
2018-10-02T14:51:19.186Z,8.27
2018-10-02T14:53:48.000Z,7.50
2018-10-02T14:56:16.770Z,7.83
2018-10-02T14:58:45.491Z,9.33
2018-10-02T15:01:14.229Z,8.13
2018-10-02T15:03:43.008Z,10.57
2018-10-02T15:06:11.833Z,11.63
2018-10-02T15:08:40.614Z,9.70
2018-10-02T15:11:09.327Z,8.67
2018-10-02T15:13:38.174Z,10.13
2018-10-02T15:16:06.890Z,12.03
2018-10-02T15:18:35.675Z,11.20
2018-10-02T15:21:04.518Z,10.80
2018-10-02T15:23:33.456Z,9.30
2018-10-02T15:26:02.276Z,9.80
2018-10-02T15:28:30.987Z,11.40
2018-10-02T15:30:59.683Z,11.97
2018-10-02T15:33:28.575Z,12.87
2018-10-02T15:35:57.402Z,12.43
2018-10-02T15:38:26.241Z,12.57
2018-10-02T15:40:55.013Z,13.37
2018-10-02T15:43:23.780Z,14.77
2018-10-02T15:45:52.457Z,14.10
2018-10-02T15:48:21.238Z,13.47
2018-10-02T15:50:50.106Z,14.67
2018-10-02T15:53:18.857Z,17.47
2018-10-02T15:55:47.680Z,9.73
2018-10-02T15:58:16.426Z,17.93
2018-10-02T16:00:45.221Z,14.90
2018-10-02T16:03:14.116Z,16.50
2018-10-02T16:05:42.836Z,13.20
2018-10-02T16:08:11.572Z,15.20
2018-10-02T16:10:40.347Z,13.00
2018-10-02T16:13:09.140Z,11.07
2018-10-02T16:15:37.896Z,12.30
2018-10-02T16:18:06.747Z,11.30
2018-10-02T16:20:35.322Z,9.93
2018-10-02T16:23:04.192Z,10.93
2018-10-02T16:25:33.083Z,8.50
2018-10-02T16:28:02.070Z,8.00
2018-10-02T16:30:30.942Z,8.40
2018-10-02T16:32:59.636Z,7.73
2018-10-02T16:35:28.331Z,8.10
2018-10-02T16:37:57.061Z,8.03
2018-10-02T16:40:25.786Z,15.20
2018-10-02T16:42:54.571Z,9.43
2018-10-02T16:45:23.327Z,8.97
2018-10-02T16:47:52.021Z,9.23
2018-10-02T16:50:20.690Z,9.93
2018-10-02T16:52:49.341Z,9.87
2018-10-02T16:55:18.073Z,9.10
2018-10-02T16:57:46.851Z,11.97
2018-10-02T17:00:15.809Z,9.30
2018-10-02T17:02:44.549Z,9.23
2018-10-02T17:05:13.278Z,9.03
2018-10-02T17:07:41.922Z,9.03
2018-10-02T17:10:10.683Z,8.77
2018-10-02T17:12:39.438Z,8.70
2018-10-02T17:15:08.317Z,8.57
2018-10-02T17:17:37.161Z,7.90
2018-10-02T17:20:06.503Z,8.07
2018-10-02T17:22:35.212Z,7.57
2018-10-02T17:25:04.157Z,8.80
2018-10-02T17:27:32.814Z,8.80
2018-10-02T17:30:01.620Z,8.97
2018-10-02T17:32:30.294Z,8.23
2018-10-02T17:34:59.158Z,7.77
2018-10-02T17:37:27.902Z,8.20
2018-10-02T17:39:56.647Z,8.60
2018-10-02T17:42:25.371Z,8.90
2018-10-02T17:44:54.028Z,9.13
2018-10-02T17:47:22.697Z,9.13
2018-10-02T17:49:51.543Z,9.07
2018-10-02T17:52:20.275Z,9.83
2018-10-02T17:54:48.921Z,10.00
2018-10-02T17:57:17.741Z,9.80
2018-10-02T17:59:46.588Z,10.10
2018-10-02T18:02:15.315Z,9.97
2018-10-02T18:04:43.985Z,8.77
2018-10-02T18:07:13.005Z,8.70
2018-10-02T18:09:41.785Z,9.80
2018-10-02T18:12:10.565Z,8.93
2018-10-02T18:14:39.235Z,8.83
2018-10-02T18:17:07.902Z,8.23
2018-10-02T18:19:36.678Z,8.87
2018-10-02T18:22:05.366Z,8.40
2018-10-02T18:24:34.074Z,8.70
2018-10-02T18:27:02.844Z,8.30
2018-10-02T18:29:31.623Z,7.83
2018-10-02T18:32:00.333Z,9.13
2018-10-02T18:34:28.991Z,8.40
2018-10-02T18:36:57.771Z,8.83
2018-10-02T18:39:26.588Z,9.50
2018-10-02T18:41:55.349Z,9.40
2018-10-02T18:44:24.062Z,9.27
2018-10-02T18:46:52.797Z,9.57
2018-10-02T18:49:21.479Z,9.70
2018-10-02T18:51:50.159Z,8.60
2018-10-02T18:54:18.912Z,10.30
2018-10-02T18:56:47.628Z,12.43
2018-10-02T18:59:16.446Z,11.00
2018-10-02T19:01:45.212Z,11.37
2018-10-02T19:04:14.018Z,9.93
2018-10-02T19:06:42.746Z,9.57
2018-10-02T19:09:14.862Z,9.80
2018-10-02T19:11:48.631Z,9.73
2018-10-02T19:14:18.367Z,11.17
2018-10-02T19:16:47.041Z,12.13
2018-10-02T19:19:20.845Z,11.13
2018-10-02T19:21:49.601Z,10.73
2018-10-02T19:24:18.359Z,11.40
2018-10-02T19:26:47.054Z,12.33
2018-10-02T19:29:15.706Z,13.47
2018-10-02T19:31:49.506Z,14.03
2018-10-02T19:34:18.164Z,13.63
2018-10-02T19:37:01.457Z,14.83
2018-10-02T19:39:31.848Z,15.10
2018-10-02T19:42:00.874Z,15.83
2018-10-02T19:44:29.633Z,20.00
2018-10-02T19:46:59.969Z,16.70
2018-10-02T19:49:31.050Z,16.77
2018-10-02T19:52:05.954Z,17.90
2018-10-02T19:54:34.733Z,18.33
2018-10-02T19:57:03.543Z,18.20
2018-10-02T19:59:32.333Z,19.30
2018-10-02T20:02:01.027Z,19.53
2018-10-02T20:04:29.805Z,20.07
2018-10-02T20:06:58.529Z,21.00
2018-10-02T20:09:27.298Z,21.03
2018-10-02T20:11:55.964Z,21.50
2018-10-02T20:14:24.682Z,22.33
2018-10-02T20:16:53.442Z,22.53
2018-10-02T20:19:22.154Z,23.50
2018-10-02T20:21:50.850Z,23.87
2018-10-02T20:24:19.577Z,24.67
2018-10-02T20:26:48.369Z,24.60
2018-10-02T20:29:17.078Z,25.87
2018-10-02T20:31:47.560Z,27.20
2018-10-02T20:34:16.244Z,27.20
2018-10-02T20:36:45.071Z,27.57
2018-10-02T20:39:14.003Z,29.50
2018-10-02T20:41:42.790Z,29.23
2018-10-02T20:44:11.547Z,31.07
2018-10-02T20:46:40.286Z,31.27
2018-10-02T20:49:09.179Z,34.40
2018-10-02T20:51:37.826Z,31.27
2018-10-02T20:54:06.534Z,31.90
2018-10-02T20:56:35.295Z,31.63
2018-10-02T20:59:03.971Z,32.27
2018-10-02T21:01:32.678Z,31.93
2018-10-02T21:04:01.431Z,30.87
2018-10-02T21:06:30.185Z,31.77
2018-10-02T21:08:58.897Z,33.37
2018-10-02T21:11:27.672Z,33.27
2018-10-02T21:13:56.447Z,33.03
2018-10-02T21:16:25.194Z,31.90
2018-10-02T21:18:53.849Z,33.83
2018-10-02T21:21:22.558Z,32.93
2018-10-02T21:23:51.236Z,33.20
2018-10-02T21:26:19.942Z,33.07
2018-10-02T21:28:48.739Z,32.23
2018-10-02T21:31:17.476Z,32.90
2018-10-02T21:33:46.172Z,33.40
2018-10-02T21:36:14.906Z,32.17
2018-10-02T21:38:43.588Z,32.37
2018-10-02T21:41:12.324Z,30.57
2018-10-02T21:43:41.043Z,33.13
2018-10-02T21:46:09.809Z,33.33
2018-10-02T21:48:38.495Z,32.40
2018-10-02T21:51:07.236Z,31.97
2018-10-02T21:53:36.024Z,33.07
2018-10-02T21:56:04.785Z,33.13
2018-10-02T21:58:33.519Z,31.73
2018-10-02T22:01:04.156Z,33.23
2018-10-02T22:03:34.828Z,32.77
2018-10-02T22:06:03.579Z,33.33
2018-10-02T22:08:32.382Z,31.70
2018-10-02T22:11:01.158Z,32.73
2018-10-02T22:13:29.973Z,32.97
2018-10-02T22:15:59.054Z,31.43
2018-10-02T22:18:27.838Z,31.53
2018-10-02T22:20:56.934Z,29.60
2018-10-02T22:23:25.830Z,29.33
2018-10-02T22:25:54.513Z,31.07
2018-10-02T22:28:23.131Z,28.27
2018-10-02T22:30:51.862Z,27.93
2018-10-02T22:33:20.667Z,28.87
2018-10-02T22:35:49.356Z,29.13
2018-10-02T22:38:18.186Z,28.87
2018-10-02T22:40:46.877Z,27.53
2018-10-02T22:43:15.541Z,28.87
2018-10-02T22:45:44.260Z,27.63
2018-10-02T22:48:12.989Z,29.83
2018-10-02T22:50:41.748Z,27.83
2018-10-02T22:53:10.430Z,27.43
2018-10-02T22:55:39.209Z,27.90
2018-10-02T22:58:08.017Z,26.47
2018-10-02T23:00:36.813Z,27.60
2018-10-02T23:03:05.616Z,26.93
2018-10-02T23:05:34.304Z,28.10
2018-10-02T23:08:02.997Z,26.40
2018-10-02T23:10:31.774Z,26.80
2018-10-02T23:13:00.434Z,27.27
2018-10-02T23:15:29.194Z,25.80
2018-10-02T23:17:57.882Z,24.07
2018-10-02T23:20:26.672Z,24.97
2018-10-02T23:22:55.429Z,25.60
2018-10-02T23:25:24.166Z,25.10
2018-10-02T23:27:52.903Z,26.00
2018-10-02T23:30:21.746Z,23.23
2018-10-02T23:32:50.472Z,24.57
2018-10-02T23:35:19.223Z,25.20
2018-10-02T23:37:47.970Z,24.27
2018-10-02T23:40:16.682Z,24.67
2018-10-02T23:42:45.426Z,23.77
2018-10-02T23:45:14.158Z,24.23
2018-10-02T23:47:42.862Z,24.23
2018-10-02T23:50:11.665Z,24.20
2018-10-02T23:52:40.329Z,24.37
2018-10-02T23:55:09.010Z,24.07
2018-10-02T23:57:37.671Z,25.17
